createdAt,value
2022-09-23T00:00:06.566Z,1011.39
2022-09-23T00:01:06.389Z,1011.35
2022-09-23T00:02:06.596Z,1011.35
2022-09-23T00:03:06.389Z,1011.35
2022-09-23T00:04:06.301Z,1011.35
2022-09-23T00:05:06.263Z,1011.30
2022-09-23T00:06:06.262Z,1011.32
2022-09-23T00:07:06.210Z,1011.33
2022-09-23T00:08:06.229Z,1011.32
2022-09-23T00:09:06.273Z,1011.31
2022-09-23T00:10:06.178Z,1011.34
2022-09-23T00:11:06.224Z,1011.30
2022-09-23T00:12:08.999Z,1011.28
2022-09-23T00:13:06.173Z,1011.31
2022-09-23T00:14:05.178Z,1011.27
2022-09-23T00:15:06.163Z,1011.24
2022-09-23T00:16:06.090Z,1011.27
2022-09-23T00:17:06.216Z,1011.23
2022-09-23T00:18:06.062Z,1011.25
2022-09-23T00:19:06.463Z,1011.27
2022-09-23T00:20:06.053Z,1011.23
2022-09-23T00:21:05.030Z,1011.24
2022-09-23T00:22:06.020Z,1011.20
2022-09-23T00:23:05.998Z,1011.21
2022-09-23T00:24:06.149Z,1011.18
2022-09-23T00:25:05.950Z,1011.18
2022-09-23T00:26:05.948Z,1011.21
2022-09-23T00:27:05.928Z,1011.18
2022-09-23T00:28:05.945Z,1011.25
2022-09-23T00:29:05.914Z,1011.18
2022-09-23T00:30:05.910Z,1011.20
2022-09-23T00:31:05.986Z,1011.15
2022-09-23T00:32:05.890Z,1011.14
2022-09-23T00:33:05.863Z,1011.12
2022-09-23T00:34:05.861Z,1011.18
2022-09-23T00:35:05.840Z,1011.18
2022-09-23T00:36:05.808Z,1011.13
2022-09-23T00:37:05.811Z,1011.12
2022-09-23T00:38:05.821Z,1011.18
2022-09-23T00:39:05.929Z,1011.13
2022-09-23T00:40:05.789Z,1011.10
2022-09-23T00:41:05.738Z,1011.09
2022-09-23T00:42:05.747Z,1011.12
2022-09-23T00:43:05.753Z,1011.14
2022-09-23T00:44:05.695Z,1011.15
2022-09-23T00:45:05.691Z,1011.11
2022-09-23T00:46:05.700Z,1011.14
2022-09-23T00:47:05.677Z,1011.10
2022-09-23T00:48:05.644Z,1011.10
2022-09-23T00:49:05.625Z,1011.09
2022-09-23T00:50:05.621Z,1011.11
2022-09-23T00:51:05.610Z,1011.09
2022-09-23T00:52:05.778Z,1011.09
2022-09-23T00:53:05.572Z,1011.13
2022-09-23T00:54:05.678Z,1011.10
2022-09-23T00:55:05.548Z,1011.13
2022-09-23T00:56:05.553Z,1011.10
2022-09-23T00:57:05.661Z,1011.10
2022-09-23T00:58:05.511Z,1011.03
2022-09-23T00:59:05.499Z,1011.04
2022-09-23T01:00:05.495Z,1010.95
2022-09-23T01:01:05.517Z,1011.01
2022-09-23T01:02:05.585Z,1010.97
2022-09-23T01:03:05.463Z,1011.02
2022-09-23T01:04:05.424Z,1010.99
2022-09-23T01:05:05.434Z,1011.02
2022-09-23T01:06:05.489Z,1011.02
2022-09-23T01:07:05.425Z,1011.04
2022-09-23T01:08:05.417Z,1011.01
2022-09-23T01:09:05.449Z,1011.04
2022-09-23T01:10:05.370Z,1011.02
2022-09-23T01:11:05.332Z,1011.00
2022-09-23T01:12:05.349Z,1011.02
2022-09-23T01:13:05.303Z,1011.01
2022-09-23T01:14:05.291Z,1011.03
2022-09-23T01:15:05.341Z,1010.92
2022-09-23T01:16:05.339Z,1010.91
2022-09-23T01:17:05.309Z,1010.90
2022-09-23T01:18:05.237Z,1010.93
2022-09-23T01:19:05.221Z,1010.92
2022-09-23T01:20:05.226Z,1010.91
2022-09-23T01:21:05.209Z,1010.87
2022-09-23T01:22:05.210Z,1010.86
2022-09-23T01:23:05.277Z,1010.89
2022-09-23T01:24:05.262Z,1010.92
2022-09-23T01:25:05.256Z,1010.88
2022-09-23T01:26:05.158Z,1010.82
2022-09-23T01:27:05.243Z,1010.89
2022-09-23T01:28:05.152Z,1010.89
2022-09-23T01:29:05.082Z,1010.85
2022-09-23T01:30:05.090Z,1010.85
2022-09-23T01:31:05.161Z,1010.85
2022-09-23T01:32:05.100Z,1010.90
2022-09-23T01:33:05.075Z,1010.86
2022-09-23T01:34:05.047Z,1010.88
2022-09-23T01:35:05.023Z,1010.85
2022-09-23T01:36:05.001Z,1010.82
2022-09-23T01:37:05.011Z,1010.79
2022-09-23T01:38:04.994Z,1010.79
2022-09-23T01:39:05.050Z,1010.80
2022-09-23T01:40:05.119Z,1010.77
2022-09-23T01:41:05.004Z,1010.82
2022-09-23T01:42:04.958Z,1010.73
2022-09-23T01:43:05.040Z,1010.79
2022-09-23T01:44:04.906Z,1010.81
2022-09-23T01:45:04.918Z,1010.79
2022-09-23T01:46:04.882Z,1010.78
2022-09-23T01:47:04.911Z,1010.75
2022-09-23T01:48:04.928Z,1010.74
2022-09-23T01:49:04.819Z,1010.72
2022-09-23T01:50:04.812Z,1010.71
2022-09-23T01:51:04.801Z,1010.82
2022-09-23T01:52:04.808Z,1010.70
2022-09-23T01:53:04.772Z,1010.67
2022-09-23T01:54:04.758Z,1010.69
2022-09-23T01:55:04.761Z,1010.72
2022-09-23T01:56:04.737Z,1010.77
2022-09-23T01:57:04.734Z,1010.70
2022-09-23T01:58:04.743Z,1010.67
2022-09-23T01:59:04.695Z,1010.71
2022-09-23T02:00:04.745Z,1010.68
2022-09-23T02:01:04.690Z,1010.67
2022-09-23T02:02:04.844Z,1010.64
2022-09-23T02:03:04.651Z,1010.60
2022-09-23T02:04:04.617Z,1010.61
2022-09-23T02:05:04.623Z,1010.62
2022-09-23T02:06:04.633Z,1010.61
2022-09-23T02:07:04.577Z,1010.57
2022-09-23T02:08:04.595Z,1010.53
2022-09-23T02:09:04.589Z,1010.58
2022-09-23T02:10:04.601Z,1010.50
2022-09-23T02:11:04.589Z,1010.56
2022-09-23T02:12:04.512Z,1010.52
2022-09-23T02:13:04.489Z,1010.51
2022-09-23T02:14:04.581Z,1010.51
2022-09-23T02:15:04.465Z,1010.56
2022-09-23T02:16:04.507Z,1010.53
2022-09-23T02:17:04.442Z,1010.50
2022-09-23T02:18:04.431Z,1010.55
2022-09-23T02:19:04.411Z,1010.50
2022-09-23T02:20:04.396Z,1010.50
2022-09-23T02:21:04.396Z,1010.45
2022-09-23T02:22:04.364Z,1010.46
2022-09-23T02:23:04.369Z,1010.54
2022-09-23T02:24:04.343Z,1010.50
2022-09-23T02:25:04.326Z,1010.48
2022-09-23T02:26:04.446Z,1010.49
2022-09-23T02:27:04.290Z,1010.46
2022-09-23T02:28:04.310Z,1010.54
2022-09-23T02:29:04.277Z,1010.49
2022-09-23T02:30:04.267Z,1010.56
2022-09-23T02:31:04.290Z,1010.45
2022-09-23T02:32:04.272Z,1010.50
2022-09-23T02:33:04.302Z,1010.43
2022-09-23T02:34:04.249Z,1010.37
2022-09-23T02:35:04.220Z,1010.37
2022-09-23T02:36:04.193Z,1010.38
2022-09-23T02:37:04.230Z,1010.37
2022-09-23T02:38:04.180Z,1010.36
2022-09-23T02:39:04.143Z,1010.37
2022-09-23T02:40:04.215Z,1010.42
2022-09-23T02:41:04.124Z,1010.48
2022-09-23T02:42:04.099Z,1010.40
2022-09-23T02:43:04.170Z,1010.35
2022-09-23T02:44:04.131Z,1010.36
2022-09-23T02:45:04.068Z,1010.30
2022-09-23T02:46:04.160Z,1010.36
2022-09-23T02:47:04.046Z,1010.34
2022-09-23T02:48:04.049Z,1010.29
2022-09-23T02:49:03.999Z,1010.32
2022-09-23T02:50:04.019Z,1010.28
2022-09-23T02:51:03.986Z,1010.26
2022-09-23T02:52:04.000Z,1010.29
2022-09-23T02:53:03.935Z,1010.25
2022-09-23T02:54:04.072Z,1010.26
2022-09-23T02:55:03.938Z,1010.29
2022-09-23T02:56:03.926Z,1010.26
2022-09-23T02:57:03.929Z,1010.23
2022-09-23T02:58:03.925Z,1010.19
2022-09-23T02:59:04.004Z,1010.16
2022-09-23T03:00:04.697Z,1010.11
2022-09-23T03:01:03.873Z,1010.10
2022-09-23T03:02:03.897Z,1010.09
2022-09-23T03:03:03.827Z,1010.12
2022-09-23T03:04:03.837Z,1010.14
2022-09-23T03:05:03.813Z,1010.10
2022-09-23T03:06:03.830Z,1010.10
2022-09-23T03:07:03.774Z,1010.09
2022-09-23T03:08:03.782Z,1010.13
2022-09-23T03:09:03.758Z,1010.07
2022-09-23T03:10:03.748Z,1010.06
2022-09-23T03:11:03.754Z,1010.07
2022-09-23T03:12:03.759Z,1010.11
2022-09-23T03:13:03.686Z,1010.05
2022-09-23T03:14:03.789Z,1010.06
2022-09-23T03:15:03.668Z,1010.05
2022-09-23T03:16:03.684Z,1010.06
2022-09-23T03:17:03.623Z,1010.09
2022-09-23T03:18:03.644Z,1010.07
2022-09-23T03:19:03.595Z,1010.03
2022-09-23T03:20:03.613Z,1010.00
2022-09-23T03:21:03.630Z,1010.03
2022-09-23T03:22:03.636Z,1010.04
2022-09-23T03:23:03.600Z,1010.02
2022-09-23T03:24:03.637Z,1010.09
2022-09-23T03:25:03.546Z,1010.04
2022-09-23T03:26:03.505Z,1010.01
2022-09-23T03:27:03.485Z,1010.04
2022-09-23T03:28:03.496Z,1010.08
2022-09-23T03:29:03.479Z,1010.10
2022-09-23T03:30:03.526Z,1010.08
2022-09-23T03:31:03.529Z,1010.05
2022-09-23T03:32:03.593Z,1010.06
2022-09-23T03:33:03.429Z,1010.03
2022-09-23T03:34:03.415Z,1010.02
2022-09-23T03:35:03.380Z,1010.03
2022-09-23T03:36:03.372Z,1010.00
2022-09-23T03:37:03.358Z,1009.97
2022-09-23T03:38:03.355Z,1009.97
2022-09-23T03:39:03.861Z,1009.98
2022-09-23T03:40:03.324Z,1009.93
2022-09-23T03:41:03.372Z,1009.98
2022-09-23T03:42:03.293Z,1009.94
2022-09-23T03:43:03.343Z,1009.96
2022-09-23T03:44:03.264Z,1010.03
2022-09-23T03:45:03.387Z,1009.97
2022-09-23T03:46:03.314Z,1009.99
2022-09-23T03:47:03.262Z,1010.01
2022-09-23T03:48:03.213Z,1009.95
2022-09-23T03:49:03.237Z,1009.94
2022-09-23T03:50:03.992Z,1009.93
2022-09-23T03:51:03.251Z,1009.97
2022-09-23T03:52:03.159Z,1009.88
2022-09-23T03:53:03.143Z,1009.90
2022-09-23T03:54:03.151Z,1009.86
2022-09-23T03:55:03.121Z,1009.86
2022-09-23T03:56:03.117Z,1009.81
2022-09-23T03:57:03.081Z,1009.87
2022-09-23T03:58:03.114Z,1009.82
2022-09-23T03:59:02.050Z,1009.82
2022-09-23T04:00:03.051Z,1009.82
2022-09-23T04:01:03.079Z,1009.81
2022-09-23T04:02:03.110Z,1009.80
2022-09-23T04:03:03.024Z,1009.80
2022-09-23T04:04:03.129Z,1009.77
2022-09-23T04:05:02.990Z,1009.75
2022-09-23T04:06:02.979Z,1009.76
2022-09-23T04:07:02.982Z,1009.76
2022-09-23T04:08:02.945Z,1009.79
2022-09-23T04:09:02.956Z,1009.76
2022-09-23T04:10:02.959Z,1009.76
2022-09-23T04:11:02.914Z,1009.73
2022-09-23T04:12:02.982Z,1009.76
2022-09-23T04:13:02.938Z,1009.79
2022-09-23T04:14:02.870Z,1009.79
2022-09-23T04:15:02.851Z,1009.78
2022-09-23T04:16:02.904Z,1009.78
2022-09-23T04:17:02.815Z,1009.77
2022-09-23T04:18:02.815Z,1009.79
2022-09-23T04:19:02.919Z,1009.77
2022-09-23T04:20:02.853Z,1009.77
2022-09-23T04:21:02.833Z,1009.78
2022-09-23T04:22:02.750Z,1009.77
2022-09-23T04:23:02.767Z,1009.77
2022-09-23T04:24:02.776Z,1009.73
2022-09-23T04:25:02.727Z,1009.76
2022-09-23T04:26:02.745Z,1009.77
2022-09-23T04:27:02.699Z,1009.76
2022-09-23T04:28:02.673Z,1009.76
2022-09-23T04:29:02.730Z,1009.72
2022-09-23T04:30:02.824Z,1009.74
2022-09-23T04:31:02.662Z,1009.75
2022-09-23T04:32:02.639Z,1009.74
2022-09-23T04:33:02.607Z,1009.72
2022-09-23T04:34:02.671Z,1009.72
2022-09-23T04:35:02.668Z,1009.72
2022-09-23T04:36:02.571Z,1009.75
2022-09-23T04:37:02.675Z,1009.71
2022-09-23T04:38:02.543Z,1009.70
2022-09-23T04:39:02.589Z,1009.69
2022-09-23T04:40:02.503Z,1009.68
2022-09-23T04:41:02.557Z,1009.70
2022-09-23T04:42:02.484Z,1009.65
2022-09-23T04:43:02.571Z,1009.63
2022-09-23T04:44:02.476Z,1009.63
2022-09-23T04:45:02.482Z,1009.64
2022-09-23T04:46:02.463Z,1009.60
2022-09-23T04:47:02.483Z,1009.61
2022-09-23T04:48:02.617Z,1009.60
2022-09-23T04:49:02.428Z,1009.54
2022-09-23T04:50:02.382Z,1009.55
2022-09-23T04:51:02.433Z,1009.52
2022-09-23T04:52:02.388Z,1009.52
2022-09-23T04:53:02.357Z,1009.51
2022-09-23T04:54:02.350Z,1009.57
2022-09-23T04:55:02.380Z,1009.50
2022-09-23T04:56:02.298Z,1009.53
2022-09-23T04:57:02.421Z,1009.53
2022-09-23T04:58:02.276Z,1009.54
2022-09-23T04:59:02.375Z,1009.48
2022-09-23T05:00:02.247Z,1009.44
2022-09-23T05:01:05.252Z,1009.44
2022-09-23T05:02:02.291Z,1009.47
2022-09-23T05:03:02.208Z,1009.44
2022-09-23T05:04:02.218Z,1009.43
2022-09-23T05:05:02.183Z,1009.42
2022-09-23T05:06:02.192Z,1009.43
2022-09-23T05:07:03.478Z,1009.42
2022-09-23T05:08:02.145Z,1009.42
2022-09-23T05:09:02.215Z,1009.38
2022-09-23T05:10:02.150Z,1009.44
2022-09-23T05:11:02.159Z,1009.42
2022-09-23T05:12:02.079Z,1009.43
2022-09-23T05:13:02.070Z,1009.42
2022-09-23T05:14:02.164Z,1009.40
2022-09-23T05:15:02.051Z,1009.41
2022-09-23T05:16:02.071Z,1009.40
2022-09-23T05:17:02.015Z,1009.39
2022-09-23T05:18:02.016Z,1009.37
2022-09-23T05:19:02.012Z,1009.34
2022-09-23T05:20:02.065Z,1009.37
2022-09-23T05:21:01.992Z,1009.34
2022-09-23T05:22:02.004Z,1009.39
2022-09-23T05:23:01.956Z,1009.37
2022-09-23T05:24:01.974Z,1009.37
2022-09-23T05:25:01.940Z,1009.33
2022-09-23T05:26:01.902Z,1009.33
2022-09-23T05:27:01.900Z,1009.36
2022-09-23T05:28:01.882Z,1009.37
2022-09-23T05:29:01.917Z,1009.41
2022-09-23T05:30:01.858Z,1009.40
2022-09-23T05:31:01.907Z,1009.39
2022-09-23T05:32:01.936Z,1009.47
2022-09-23T05:33:01.799Z,1009.40
2022-09-23T05:34:01.797Z,1009.46
2022-09-23T05:35:01.855Z,1009.49
2022-09-23T05:36:01.811Z,1009.47
2022-09-23T05:37:01.766Z,1009.48
2022-09-23T05:38:01.755Z,1009.51
2022-09-23T05:39:01.743Z,1009.51
2022-09-23T05:40:00.745Z,1009.55
2022-09-23T05:41:01.702Z,1009.53
2022-09-23T05:42:01.701Z,1009.54
2022-09-23T05:43:01.716Z,1009.52
2022-09-23T05:44:01.655Z,1009.58
2022-09-23T05:45:01.677Z,1009.57
2022-09-23T05:46:03.856Z,1009.58
2022-09-23T05:47:01.728Z,1009.60
2022-09-23T05:48:01.623Z,1009.57
2022-09-23T05:49:03.263Z,1009.55
2022-09-23T05:50:01.608Z,1009.60
2022-09-23T05:51:01.593Z,1009.63
2022-09-23T05:52:01.560Z,1009.64
2022-09-23T05:53:01.540Z,1009.65
2022-09-23T05:54:01.530Z,1009.64
2022-09-23T05:55:01.520Z,1009.66
2022-09-23T05:56:01.597Z,1009.66
2022-09-23T05:57:04.867Z,1009.63
2022-09-23T05:58:01.473Z,1009.62
2022-09-23T05:59:01.695Z,1009.63
2022-09-23T06:00:01.454Z,1009.59
2022-09-23T06:01:01.462Z,1009.64
2022-09-23T06:02:01.464Z,1009.62
2022-09-23T06:03:01.479Z,1009.59
2022-09-23T06:04:01.528Z,1009.60
2022-09-23T06:05:02.933Z,1009.61
2022-09-23T06:06:02.003Z,1009.64
2022-09-23T06:07:03.724Z,1009.63
2022-09-23T06:08:01.342Z,1009.61
2022-09-23T06:09:01.357Z,1009.57
2022-09-23T06:10:01.325Z,1009.55
2022-09-23T06:11:01.305Z,1009.52
2022-09-23T06:12:01.329Z,1009.56
2022-09-23T06:13:01.317Z,1009.55
2022-09-23T06:14:01.409Z,1009.53
2022-09-23T06:15:01.267Z,1009.52
2022-09-23T06:16:01.305Z,1009.52
2022-09-23T06:17:01.236Z,1009.58
2022-09-23T06:18:01.215Z,1009.58
2022-09-23T06:19:05.263Z,1009.58
2022-09-23T06:20:01.187Z,1009.58
2022-09-23T06:21:02.870Z,1009.58
2022-09-23T06:22:05.110Z,1009.59
2022-09-23T06:23:01.162Z,1009.53
2022-09-23T06:24:01.220Z,1009.53
2022-09-23T06:25:01.146Z,1009.52
2022-09-23T06:26:01.171Z,1009.53
2022-09-23T06:27:01.108Z,1009.55
2022-09-23T06:28:01.150Z,1009.52
2022-09-23T06:29:01.074Z,1009.57
2022-09-23T06:30:01.109Z,1009.57
2022-09-23T06:31:01.190Z,1009.51
2022-09-23T06:32:01.145Z,1009.55
2022-09-23T06:33:01.052Z,1009.55
2022-09-23T06:34:12.240Z,1009.56
2022-09-23T06:35:01.022Z,1009.56
2022-09-23T06:36:00.960Z,1009.60
2022-09-23T06:37:11.455Z,1009.55
2022-09-23T06:38:00.938Z,1009.57
2022-09-23T06:39:00.936Z,1009.58
2022-09-23T06:40:00.906Z,1009.59
2022-09-23T06:41:00.920Z,1009.56
2022-09-23T06:42:00.873Z,1009.53
2022-09-23T06:43:00.891Z,1009.52
2022-09-23T06:44:00.878Z,1009.54
2022-09-23T06:45:00.879Z,1009.55
2022-09-23T06:46:00.929Z,1009.51
2022-09-23T06:47:00.871Z,1009.52
2022-09-23T06:48:00.809Z,1009.55
2022-09-23T06:49:00.806Z,1009.52
2022-09-23T06:50:00.795Z,1009.49
2022-09-23T06:51:00.861Z,1009.52
2022-09-23T06:52:00.742Z,1009.50
2022-09-23T06:53:00.749Z,1009.50
2022-09-23T06:54:00.726Z,1009.47
2022-09-23T06:55:00.763Z,1009.49
2022-09-23T06:56:00.748Z,1009.49
2022-09-23T06:57:00.686Z,1009.52
2022-09-23T06:58:00.681Z,1009.52
2022-09-23T06:59:00.654Z,1009.54
2022-09-23T07:00:00.658Z,1009.49
2022-09-23T07:01:00.670Z,1009.50
2022-09-23T07:02:00.801Z,1009.48
2022-09-23T07:03:00.722Z,1009.51
2022-09-23T07:04:00.748Z,1009.54
2022-09-23T07:05:00.631Z,1009.48
2022-09-23T07:06:00.596Z,1009.51
2022-09-23T07:07:01.532Z,1009.48
2022-09-23T07:08:00.546Z,1009.46
2022-09-23T07:09:00.529Z,1009.47
2022-09-23T07:10:00.510Z,1009.50
2022-09-23T07:11:00.508Z,1009.49
2022-09-23T07:12:00.494Z,1009.48
2022-09-23T07:13:00.523Z,1009.51
2022-09-23T07:14:00.475Z,1009.49
2022-09-23T07:15:00.466Z,1009.48
2022-09-23T07:16:00.533Z,1009.50
2022-09-23T07:17:00.447Z,1009.49
2022-09-23T07:18:00.397Z,1009.54
2022-09-23T07:19:00.425Z,1009.51
2022-09-23T07:20:00.441Z,1009.55
2022-09-23T07:21:00.391Z,1009.54
2022-09-23T07:22:00.351Z,1009.50
2022-09-23T07:23:00.343Z,1009.53
2022-09-23T07:24:00.324Z,1009.51
2022-09-23T07:25:00.315Z,1009.50
2022-09-23T07:26:00.302Z,1009.53
2022-09-23T07:27:00.313Z,1009.56
2022-09-23T07:28:00.262Z,1009.52
2022-09-23T07:29:00.257Z,1009.55
2022-09-23T07:30:00.249Z,1009.57
2022-09-23T07:31:01.073Z,1009.57
2022-09-23T07:32:09.746Z,1009.58
2022-09-23T07:33:00.299Z,1009.54
2022-09-23T07:34:00.185Z,1009.57
2022-09-23T07:35:00.175Z,1009.59
2022-09-23T07:36:00.175Z,1009.61
2022-09-23T07:37:00.159Z,1009.62
2022-09-23T07:38:00.131Z,1009.63
2022-09-23T07:39:00.126Z,1009.63
2022-09-23T07:40:00.107Z,1009.64
2022-09-23T07:41:00.104Z,1009.59
2022-09-23T07:42:00.121Z,1009.57
2022-09-23T07:43:00.087Z,1009.54
2022-09-23T07:44:00.132Z,1009.56
2022-09-23T07:45:00.041Z,1009.59
2022-09-23T07:46:00.138Z,1009.53
2022-09-23T07:47:00.099Z,1009.54
2022-09-23T07:48:00.027Z,1009.57
2022-09-23T07:48:59.996Z,1009.52
2022-09-23T07:50:00.052Z,1009.55
2022-09-23T07:51:00.009Z,1009.57
2022-09-23T07:52:02.010Z,1009.62
2022-09-23T07:52:59.940Z,1009.54
2022-09-23T07:53:59.932Z,1009.57
2022-09-23T07:54:59.902Z,1009.55
2022-09-23T07:56:00.433Z,1009.51
2022-09-23T07:57:01.457Z,1009.53
2022-09-23T07:57:59.863Z,1009.56
2022-09-23T07:59:00.405Z,1009.53
2022-09-23T07:59:59.840Z,1009.54
2022-09-23T08:00:59.846Z,1009.50
2022-09-23T08:01:59.896Z,1009.54
2022-09-23T08:02:59.862Z,1009.51
2022-09-23T08:03:59.780Z,1009.53
2022-09-23T08:04:59.770Z,1009.57
2022-09-23T08:05:59.755Z,1009.50
2022-09-23T08:07:00.480Z,1009.53
2022-09-23T08:07:59.780Z,1009.51
2022-09-23T08:08:59.727Z,1009.52
2022-09-23T08:09:59.709Z,1009.55
2022-09-23T08:10:59.744Z,1009.56
2022-09-23T08:12:01.497Z,1009.55
2022-09-23T08:12:59.681Z,1009.57
2022-09-23T08:13:59.753Z,1009.58
2022-09-23T08:14:59.971Z,1009.53
2022-09-23T08:15:59.759Z,1009.50
2022-09-23T08:17:01.454Z,1009.50
2022-09-23T08:17:59.602Z,1009.51
2022-09-23T08:18:59.695Z,1009.51
2022-09-23T08:19:59.651Z,1009.52
2022-09-23T08:20:59.570Z,1009.48
2022-09-23T08:22:01.443Z,1009.55
2022-09-23T08:22:59.723Z,1009.45
2022-09-23T08:23:59.623Z,1009.47
2022-09-23T08:24:59.511Z,1009.45
2022-09-23T08:25:59.773Z,1009.50
2022-09-23T08:26:59.486Z,1009.45
2022-09-23T08:27:59.478Z,1009.45
2022-09-23T08:28:59.449Z,1009.44
2022-09-23T08:29:59.475Z,1009.42
2022-09-23T08:30:59.506Z,1009.47
2022-09-23T08:31:59.424Z,1009.41
2022-09-23T08:32:59.455Z,1009.41
2022-09-23T08:33:59.457Z,1009.42
2022-09-23T08:34:59.379Z,1009.40
2022-09-23T08:35:59.392Z,1009.45
2022-09-23T08:36:59.401Z,1009.44
2022-09-23T08:37:59.363Z,1009.43
2022-09-23T08:38:59.354Z,1009.41
2022-09-23T08:39:59.315Z,1009.41
2022-09-23T08:40:59.344Z,1009.41
2022-09-23T08:41:59.418Z,1009.38
2022-09-23T08:42:59.386Z,1009.43
2022-09-23T08:43:59.297Z,1009.37
2022-09-23T08:44:59.235Z,1009.39
2022-09-23T08:45:59.292Z,1009.36
2022-09-23T08:46:59.219Z,1009.39
2022-09-23T08:47:59.198Z,1009.35
2022-09-23T08:48:59.180Z,1009.31
2022-09-23T08:49:59.184Z,1009.35
2022-09-23T08:50:59.204Z,1009.33
2022-09-23T08:51:59.177Z,1009.28
2022-09-23T08:52:59.140Z,1009.30
2022-09-23T08:53:59.191Z,1009.28
2022-09-23T08:54:59.146Z,1009.25
2022-09-23T08:55:59.128Z,1009.28
2022-09-23T08:56:59.088Z,1009.32
2022-09-23T08:58:24.952Z,1009.27
2022-09-23T08:58:59.069Z,1009.25
2022-09-23T08:59:59.047Z,1009.31
2022-09-23T09:00:59.041Z,1009.29
2022-09-23T09:01:59.023Z,1009.24
2022-09-23T09:02:59.006Z,1009.31
2022-09-23T09:03:58.983Z,1009.25
2022-09-23T09:04:59.038Z,1009.28
2022-09-23T09:05:58.980Z,1009.29
2022-09-23T09:07:12.337Z,1009.27
2022-09-23T09:07:59.005Z,1009.29
2022-09-23T09:08:58.928Z,1009.29
2022-09-23T09:09:59.004Z,1009.30
2022-09-23T09:10:58.922Z,1009.28
2022-09-23T09:11:58.888Z,1009.27
2022-09-23T09:12:58.935Z,1009.25
2022-09-23T09:13:58.856Z,1009.25
2022-09-23T09:14:58.849Z,1009.22
2022-09-23T09:15:58.944Z,1009.24
2022-09-23T09:17:00.338Z,1009.21
2022-09-23T09:17:58.801Z,1009.19
2022-09-23T09:18:58.792Z,1009.21
2022-09-23T09:19:58.842Z,1009.19
2022-09-23T09:20:58.771Z,1009.20
2022-09-23T09:21:58.754Z,1009.25
2022-09-23T09:22:58.736Z,1009.22
2022-09-23T09:23:58.894Z,1009.23
2022-09-23T09:24:58.761Z,1009.23
2022-09-23T09:25:58.699Z,1009.23
2022-09-23T09:26:58.700Z,1009.16
2022-09-23T09:27:58.692Z,1009.16
2022-09-23T09:29:02.515Z,1009.19
2022-09-23T09:29:58.657Z,1009.18
2022-09-23T09:30:58.691Z,1009.19
2022-09-23T09:31:58.658Z,1009.15
2022-09-23T09:32:57.627Z,1009.15
2022-09-23T09:33:58.594Z,1009.12
2022-09-23T09:34:58.581Z,1009.15
2022-09-23T09:35:58.584Z,1009.10
2022-09-23T09:37:01.305Z,1009.11
2022-09-23T09:37:58.553Z,1009.08
2022-09-23T09:38:58.558Z,1009.09
2022-09-23T09:39:58.506Z,1009.11
2022-09-23T09:40:58.494Z,1009.11
2022-09-23T09:41:58.543Z,1009.14
2022-09-23T09:42:58.483Z,1009.06
2022-09-23T09:43:58.459Z,1009.08
2022-09-23T09:44:58.503Z,1009.06
2022-09-23T09:45:58.493Z,1009.03
2022-09-23T09:46:58.508Z,1009.02
2022-09-23T09:47:58.443Z,1009.01
2022-09-23T09:48:58.477Z,1009.02
2022-09-23T09:49:58.406Z,1009.00
2022-09-23T09:50:58.388Z,1008.98
2022-09-23T09:51:58.469Z,1008.96
2022-09-23T09:52:58.314Z,1008.94
2022-09-23T09:53:58.302Z,1008.97
2022-09-23T09:54:58.250Z,1008.92
2022-09-23T09:56:03.758Z,1008.98
2022-09-23T09:56:58.271Z,1008.98
2022-09-23T09:57:58.257Z,1009.00
2022-09-23T09:58:58.190Z,1008.97
2022-09-23T09:59:58.191Z,1009.03
2022-09-23T10:00:58.206Z,1009.00
2022-09-23T10:01:58.167Z,1008.98
2022-09-23T10:02:58.148Z,1008.97
2022-09-23T10:03:59.598Z,1008.97
2022-09-23T10:04:58.171Z,1008.93
2022-09-23T10:05:58.127Z,1008.94
2022-09-23T10:06:58.105Z,1008.92
2022-09-23T10:07:58.122Z,1008.90
2022-09-23T10:08:58.055Z,1008.90
2022-09-23T10:10:01.842Z,1008.88
2022-09-23T10:10:58.059Z,1008.87
2022-09-23T10:11:58.137Z,1008.85
2022-09-23T10:12:58.033Z,1008.85
2022-09-23T10:13:58.005Z,1008.84
2022-09-23T10:14:57.976Z,1008.83
2022-09-23T10:15:57.967Z,1008.84
2022-09-23T10:16:57.998Z,1008.82
2022-09-23T10:17:57.940Z,1008.83
2022-09-23T10:18:57.921Z,1008.81
2022-09-23T10:19:57.925Z,1008.79
2022-09-23T10:20:57.913Z,1008.79
2022-09-23T10:21:57.903Z,1008.78
2022-09-23T10:22:57.876Z,1008.79
2022-09-23T10:23:57.904Z,1008.79
2022-09-23T10:24:57.851Z,1008.77
2022-09-23T10:25:57.868Z,1008.79
2022-09-23T10:26:57.855Z,1008.77
2022-09-23T10:27:57.835Z,1008.72
2022-09-23T10:28:57.859Z,1008.73
2022-09-23T10:29:57.836Z,1008.69
2022-09-23T10:30:57.777Z,1008.70
2022-09-23T10:31:57.857Z,1008.69
2022-09-23T10:32:57.737Z,1008.74
2022-09-23T10:33:57.741Z,1008.71
2022-09-23T10:34:57.717Z,1008.72
2022-09-23T10:35:57.699Z,1008.75
2022-09-23T10:36:57.701Z,1008.72
2022-09-23T10:37:57.685Z,1008.73
2022-09-23T10:38:57.698Z,1008.73
2022-09-23T10:39:57.650Z,1008.71
2022-09-23T10:40:57.834Z,1008.68
2022-09-23T10:41:57.671Z,1008.69
2022-09-23T10:42:57.621Z,1008.70
2022-09-23T10:43:57.623Z,1008.70
2022-09-23T10:44:57.590Z,1008.68
2022-09-23T10:45:57.623Z,1008.67
2022-09-23T10:46:57.554Z,1008.64
2022-09-23T10:47:57.560Z,1008.64
2022-09-23T10:48:57.658Z,1008.63
2022-09-23T10:49:57.513Z,1008.66
2022-09-23T10:50:59.444Z,1008.65
2022-09-23T10:51:57.503Z,1008.62
2022-09-23T10:52:57.493Z,1008.67
2022-09-23T10:53:57.473Z,1008.63
2022-09-23T10:54:57.458Z,1008.61
2022-09-23T10:55:57.439Z,1008.63
2022-09-23T10:56:59.019Z,1008.61
2022-09-23T10:57:57.487Z,1008.61
2022-09-23T10:58:57.422Z,1008.57
2022-09-23T10:59:57.391Z,1008.58
2022-09-23T11:00:57.442Z,1008.60
2022-09-23T11:01:57.454Z,1008.58
2022-09-23T11:02:57.393Z,1008.59
2022-09-23T11:03:57.418Z,1008.54
2022-09-23T11:04:57.394Z,1008.53
2022-09-23T11:05:57.414Z,1008.47
2022-09-23T11:06:57.311Z,1008.49
2022-09-23T11:07:57.298Z,1008.47
2022-09-23T11:08:57.291Z,1008.45
2022-09-23T11:09:57.337Z,1008.51
2022-09-23T11:10:57.240Z,1008.46
2022-09-23T11:11:57.243Z,1008.41
2022-09-23T11:12:57.223Z,1008.39
2022-09-23T11:13:57.203Z,1008.39
2022-09-23T11:14:57.213Z,1008.39
2022-09-23T11:15:57.178Z,1008.34
2022-09-23T11:16:57.320Z,1008.33
2022-09-23T11:17:57.198Z,1008.34
2022-09-23T11:18:57.176Z,1008.33
2022-09-23T11:19:57.129Z,1008.29
2022-09-23T11:20:57.173Z,1008.32
2022-09-23T11:21:57.155Z,1008.33
2022-09-23T11:22:57.098Z,1008.31
2022-09-23T11:23:57.079Z,1008.29
2022-09-23T11:24:57.123Z,1008.28
2022-09-23T11:25:57.110Z,1008.29
2022-09-23T11:26:57.082Z,1008.27
2022-09-23T11:27:57.062Z,1008.31
2022-09-23T11:28:56.997Z,1008.23
2022-09-23T11:29:56.997Z,1008.24
2022-09-23T11:30:57.064Z,1008.27
2022-09-23T11:31:59.556Z,1008.23
2022-09-23T11:32:57.033Z,1008.21
2022-09-23T11:33:56.956Z,1008.25
2022-09-23T11:34:57.136Z,1008.20
2022-09-23T11:35:56.924Z,1008.20
2022-09-23T11:36:56.948Z,1008.16
2022-09-23T11:37:56.921Z,1008.19
2022-09-23T11:38:56.869Z,1008.18
2022-09-23T11:39:56.890Z,1008.15
2022-09-23T11:40:56.972Z,1008.13
2022-09-23T11:41:56.866Z,1008.17
2022-09-23T11:42:56.827Z,1008.13
2022-09-23T11:43:56.818Z,1008.12
2022-09-23T11:44:56.838Z,1008.14
2022-09-23T11:45:56.879Z,1008.09
2022-09-23T11:46:56.785Z,1008.09
2022-09-23T11:47:56.833Z,1008.04
2022-09-23T11:48:56.748Z,1008.03
2022-09-23T11:49:56.761Z,1007.99
2022-09-23T11:50:56.737Z,1008.01
2022-09-23T11:51:56.717Z,1008.02
2022-09-23T11:52:56.988Z,1007.99
2022-09-23T11:53:56.720Z,1007.99
2022-09-23T11:54:56.718Z,1008.02
2022-09-23T11:55:58.335Z,1008.00
2022-09-23T11:56:56.629Z,1007.97
2022-09-23T11:57:56.668Z,1007.99
2022-09-23T11:58:59.749Z,1008.00
2022-09-23T11:59:56.599Z,1007.98
2022-09-23T12:01:00.653Z,1008.04
2022-09-23T12:01:56.825Z,1008.01
2022-09-23T12:03:04.963Z,1008.02
2022-09-23T12:03:57.138Z,1008.02
2022-09-23T12:04:58.275Z,1008.04